NCAR-RAP Real-Time Weather Data

Output produced by METARs form (17 December 2018  07:40 UTC)
found at http://weather.rap.ucar.edu/surface/
 
RJSN 170700Z 15006KT 9999 -SHRA FEW010 SCT020 BKN035 07/06 Q1005
RJSN 170600Z 15004KT 9999 -SHRA FEW010 SCT020 BKN035 08/06 Q1005
RJSN 170500Z 16005KT 9999 -SHRA FEW008 SCT015 BKN030 07/06 Q1005
RJSN 170435Z VRB01KT 5000 SHRA BR FEW005 SCT010 BKN015 08/07 Q1006 RMK 1ST005 4CU010 6CU015 A2971
RJSN 170419Z 28004KT 250V310 4000 SHRA BR FEW005 BKN010 BKN020 08/08 Q1006 RMK 2ST005 5CU010 7CU020 A2971
RJSN 170412Z 25004KT 200V300 3000 SHRA BR FEW005 BKN008 BKN015 08/08 Q1006 RMK 2ST005 5ST008 7CU015 A2971
RJSN 170406Z 21004KT 4000 SHRA BR FEW008 SCT010 BKN020 08/08 Q1006 RMK 2ST008 4CU010 7CU020 A2971
RJSN 170400Z 21004KT 5000 -SHRA BR FEW007 SCT010 BKN020 08/08 Q1006
RJSN 170300Z 19005KT 9999 -SHRA FEW020 SCT030 BKN040 07/07 Q1006
RJSN 170200Z 20008KT 6000 -SHRA FEW015 SCT020 BKN030 07/07 Q1008
RJSN 170100Z 18005KT 9999 FEW030 SCT040 BKN050 07/06 Q1009
RJSN 170000Z 19006KT 9999 FEW030 SCT040 BKN050 06/05 Q1009
RJSN 162300Z 18008KT 9999 -SHRA FEW020 SCT030 BKN050 05/05 Q1009
RJSN 162200Z 17006KT 9999 -SHRA FEW020 BKN030 BKN040 05/05 Q1009
RJSN 162110Z 17009KT 9999 -SHRA FEW020 SCT030 BKN040 05/05 Q1010 RMK 1CU020 3CU030 7CU040 A2983
RJSN 161200Z 17008KT 9999 FEW040 SCT100 BKN180 06/M03 Q1014
RJSN 161100Z 18009KT 9999 FEW040 SCT120 BKN/// 06/M03 Q1014
RJSN 161000Z 18008KT 9999 FEW040 SCT100 BKN150 06/M03 Q1015
RJSN 160900Z 18010KT 9999 FEW040 SCT080 BKN120 06/M04 Q1015
RJSN 160800Z 19004KT 9999 FEW040 SCT120 BKN/// 06/M04 Q1016
RJSN 160700Z 16003KT 9999 FEW040 SCT150 BKN/// 07/M03 Q1017
RJSN 160600Z 17008KT 9999 FEW040 SCT180 BKN/// 08/M04 Q1018
RJSN 160500Z 17008KT 9999 FEW040 SCT180 BKN/// 07/M04 Q1019
RJSN 160400Z 17010KT 9999 FEW040 SCT180 BKN/// 07/M03 Q1020
RJSN 160300Z 17010KT 9999 FEW040 SCT180 BKN/// 07/M03 Q1021
RJSN 160200Z 18009KT 9999 FEW040 BKN/// 06/M02 Q1022
RJSN 160100Z 19011KT 9999 FEW040 BKN/// 06/M03 Q1024
RJSN 160000Z 19011KT 9999 FEW040 BKN/// 04/M02 Q1024
RJSN 151200Z 19008KT 9999 FEW040 BKN050 03/00 Q1029
RJSN 151100Z 20009KT 9999 FEW040 BKN060 03/00 Q1029
RJSN 151000Z 20005KT 180V250 9999 FEW040 BKN060 03/00 Q1029
RJSN 150900Z 20006KT 9999 FEW040 BKN060 05/M05 Q1029
RJSN 150825Z 19010KT 9999 FEW030 SCT050 BKN060 05/M03 Q1028 RMK 1CU030 4CU050 6SC060 A3038
RJSN 150800Z 25009KT 9999 FEW030 SCT040 BKN060 05/M04 Q1028
RJSN 150700Z 28013KT 9999 FEW020 SCT030 BKN040 05/M02 Q1028
RJSN 150600Z 28014KT 9999 FEW015 SCT020 BKN035 05/M02 Q1028
RJSN 150500Z 27011KT 9999 VCSH FEW015 SCT020 BKN030 06/M01 Q1027
RJSN 150423Z 22007KT 200V260 9999 -SHRA FEW010 BKN020 BKN030 03/M01 Q1027 RMK 1CU010 5CU020 7CU030 A3035
RJSN 150417Z 22008KT 8000 SHSNRAGS FEW010 BKN020 BKN030 03/M00 Q1027 RMK 1CU010 5CU020 7CU030 A3035 SMALL HAIL
RJSN 150400Z 22006KT 8000 -SHSNRAGS FEW010 SCT020 BKN030 03/00 Q1027
RJSN 150347Z 22011KT 9999 -SHSN FEW008 SCT010 BKN020 02/M00 Q1027 RMK 1CU008 3CU010 5CU020 A3035
RJSN 150331Z 25011KT 5000 -SHSNRAGS FEW005 SCT008 BKN010 02/00 Q1028 RMK 1ST005 3CU008 5CU010 A3036 SMALL HAIL
RJSN 150325Z 24009KT 7000 -SHSNRA FEW005 SCT008 BKN010 02/01 Q1028 RMK 1ST005 4CU008 6CU010 A3036
RJSN 150315Z 27015KT 2000 -SHSNRA FEW005 BKN008 BKN010 02/00 Q1028 RMK 2ST005 5CU008 7CU010 A3037
RJSN 150300Z 31020KT 4500 -SHRASN FEW006 BKN010 BKN015 02/01 Q1028
RJSN 150249Z 31018KT 4000 -SHRA FEW010 BKN020 BKN030 03/01 Q1028 RMK 1CU010 5CU020 7CU030 A3036 9999S
RJSN 150241Z 33015G25KT 9999 -SHRA FEW010 SCT020 BKN030 04/00 Q1027 RMK 1CU010 3CU020 6CU030 A3035 4000SW
RJSN 150234Z 33017KT 9999 -SHRA FEW010 SCT020 BKN030 04/00 Q1027 RMK 1CU010 3CU020 6CU030 A3035
RJSN 150216Z 33015KT 9999 -SHRAGS FEW010 SCT015 BKN020 04/01 Q1028 RMK 1CU010 3CU015 5CU020 A3036 5000NW SMALL HAIL
RJSN 150200Z 35016KT 9999 VCSH FEW010 SCT020 BKN040 04/00 Q1028
RJSN 150141Z 35018KT 9999 -SHRA FEW010 SCT015 BKN020 04/02 Q1027 RMK 1CU010 3CU015 5CU020 A3035
RJSN 150125Z 34016KT 9999 -SHRASNGS FEW007 SCT010 BKN020 04/01 Q1028 RMK 1CU007 3CU010 6CU020 A3036 SMALL HAIL
RJSN 150100Z 34016KT 9999 -SHSNRA FEW007 SCT010 BKN015 04/02 Q1028
RJSN 150045Z 30016KT 6000 R28/2000N -SHSNRAGS FEW007 BKN010 BKN020 02/M01 Q1028 RMK 1CU007 5CU010 7CU020 A3038 2500E SMALL HAIL
RJSN 150034Z 30017G27KT 4000 -SHSNRAGS FEW008 BKN010 BKN020 03/00 Q1029 RMK 1CU008 5CU010 7CU020 A3039 9999E SMALL HAIL
RJSN 150017Z 31017KT 9999 VCSH FEW010 SCT020 BKN030 04/M01 Q1028 RMK 1CU010 3CU020 6CU030 A3037
RJSN 150009Z 31017KT 9999 -SHSNRAGS FEW008 SCT010 BKN030 04/M02 Q1028 RMK 1CU008 3CU010 6CU030 A3037 SMALL HAIL
RJSN 150000Z 32017KT 9999 -SHSNRA FEW008 SCT010 BKN020 04/M01 Q1028
RJSN 142347Z 33015KT 9999 -SHSNRA FEW006 SCT010 BKN015 03/M01 Q1028 RMK 1ST006 3CU010 5CU015 A3036
RJSN 142334Z 33017KT 8000 -SHSNRAGS FEW004 SCT008 BKN010 02/01 Q1028 RMK 1ST004 3CU008 5CU010 A3036 SMALL HAIL
RJSN 142314Z 33017KT 9999 -SHSNRA FEW003 SCT008 BKN010 02/02 Q1028 RMK 1ST003 3CU008 5CU010 A3036
RJSN 142303Z 32021KT 4000 -SHSNRA FEW004 BKN008 BKN010 02/01 Q1028 RMK 1ST004 5CU008 7CU010 A3036 8000SW
RJSN 142300Z 32021KT 8000 -SHSNRA FEW006 SCT008 BKN010 02/01 Q1028
RJSN 142200Z 30017KT 5000 -SHSNRA FEW006 BKN010 BKN015 03/M00 Q1027
RJSN 142137Z 29015G25KT 9999 -SHRASNGS FEW010 SCT015 BKN020 03/01 Q1027 RMK 1CU010 3CU015 5CU020 A3034 SMALL HAIL
RJSN 142110Z 30020KT 9999 FEW015 SCT020 BKN050 03/M02 Q1027 RMK 1CU015 3CU020 5CU050 A3033